Vernon, Oklahoma
Current Conditions -  °F | °C
As of 6:53 PM on Tuesday 21 Oct 2014 (Local Time) from KMLC Reporting Station
Clear Clear  
Wind Chill: 70°   Ceiling: Unl
Heat Index: 70°   Visibility: 10mi
Dew Point: 64°   Wind: 3mph
Humidity: 81%   Direction: 140°SE
Pressure: 30.04"   Gusts: NA
Location:  35.2158°N, 95.8817°W
Report Text: KMLC 212353Z AUTO 14003KT 10SM CLR 21/18 A3004 RMK AO2 SLP167 T02110178 10278 20211 55002
Loading
Personal Weather Stations






























Interactive Weather Map New forecast layout! Learn more

10-Day Weather Forecast

Advertisements
Track Severe Weather on mobile